Time;durP1;ratioP1;P1;durP2;ratioP2;P2;SDS_P1;SDS_P2;PMS_P1;PMS_P2;Temp;Humidity;BMP_temperature;BMP_pressure;BME280_temperature;BME280_humidity;BME280_pressure;Samples;Min_cycle;Max_cycle;Signal;HPM_P1;HPM_P2
2022/02/26 00:01:30;;;;;;;26.93;4.93;;;5.00;99.90;;;;;;5102431;28;20274;-44
2022/02/26 00:03:57;;;;;;;28.37;5.10;;;5.00;99.90;;;;;;5105289;28;20193;-47
2022/02/26 00:06:23;;;;;;;24.70;4.90;;;5.00;99.90;;;;;;5100684;28;20193;-46
2022/02/26 00:08:50;;;;;;;22.80;4.93;;;5.00;99.90;;;;;;5090838;28;20245;-44
2022/02/26 00:11:17;;;;;;;22.73;4.27;;;4.90;99.90;;;;;;5100826;28;20721;-46
2022/02/26 00:13:44;;;;;;;21.83;4.10;;;4.90;99.90;;;;;;5105052;28;20228;-45
2022/02/26 00:16:12;;;;;;;16.63;4.73;;;4.90;99.90;;;;;;5102010;28;20562;-49
2022/02/26 00:18:39;;;;;;;20.40;3.93;;;4.90;99.90;;;;;;5104339;28;20573;-45
2022/02/26 00:21:08;;;;;;;33.83;4.33;;;4.90;99.90;;;;;;5102764;28;20581;-43
2022/02/26 00:23:35;;;;;;;26.67;5.00;;;4.80;99.90;;;;;;5088841;28;23842;-44
2022/02/26 00:26:02;;;;;;;24.23;4.10;;;4.80;99.90;;;;;;5102927;28;20204;-47
2022/02/26 00:28:29;;;;;;;30.77;4.73;;;4.80;99.90;;;;;;5101558;28;20242;-46
2022/02/26 00:30:56;;;;;;;31.10;4.00;;;4.80;99.90;;;;;;5104524;28;20631;-48
2022/02/26 00:33:25;;;;;;;25.60;4.43;;;4.80;99.90;;;;;;5100430;28;20205;-45
2022/02/26 00:35:52;;;;;;;23.87;4.53;;;4.80;99.90;;;;;;5104363;28;20197;-45
2022/02/26 00:38:20;;;;;;;24.93;4.27;;;4.70;99.90;;;;;;5085359;28;20226;-42
2022/02/26 00:40:47;;;;;;;20.33;4.57;;;4.70;99.90;;;;;;5103900;28;20216;-44
2022/02/26 00:43:13;;;;;;;23.73;4.73;;;4.70;99.90;;;;;;5101127;28;20661;-44
2022/02/26 00:45:40;;;;;;;20.23;3.57;;;4.70;99.90;;;;;;5104001;28;20197;-44
2022/02/26 00:48:07;;;;;;;21.63;3.50;;;4.60;99.90;;;;;;5101985;28;20216;-44
2022/02/26 00:50:34;;;;;;;24.97;3.47;;;4.60;99.90;;;;;;5102076;28;20427;-47
2022/02/26 00:53:01;;;;;;;21.97;4.80;;;4.60;99.90;;;;;;5100423;28;20197;-43
2022/02/26 00:55:28;;;;;;;26.50;5.57;;;4.60;99.90;;;;;;5089531;28;20197;-46
2022/02/26 00:57:56;;;;;;;20.33;4.63;;;4.60;99.90;;;;;;5101431;28;20197;-46
2022/02/26 01:00:23;;;;;;;23.30;4.93;;;4.60;99.90;;;;;;5093464;28;20219;-44
2022/02/26 01:02:50;;;;;;;19.80;4.30;;;4.60;99.90;;;;;;5097440;28;20208;-45
2022/02/26 01:05:17;;;;;;;32.50;5.37;;;4.60;99.90;;;;;;5093308;28;20198;-44
2022/02/26 01:07:46;;;;;;;24.70;5.00;;;4.50;99.90;;;;;;5097130;28;20205;-45
2022/02/26 01:10:14;;;;;;;29.37;5.53;;;4.50;99.90;;;;;;5079520;28;20217;-45
2022/02/26 01:12:41;;;;;;;18.20;4.40;;;4.50;99.90;;;;;;5103339;28;20185;-45
2022/02/26 01:15:10;;;;;;;29.97;4.87;;;4.50;99.90;;;;;;5101225;28;20205;-43
2022/02/26 01:17:36;;;;;;;24.60;4.70;;;4.50;99.90;;;;;;5102447;28;20573;-43
2022/02/26 01:20:04;;;;;;;29.67;4.77;;;4.50;99.90;;;;;;5102416;28;20221;-45
2022/02/26 01:22:31;;;;;;;26.60;4.23;;;4.50;99.90;;;;;;5101401;28;20280;-45
2022/02/26 01:24:59;;;;;;;26.93;3.87;;;4.40;99.90;;;;;;5088750;28;20205;-45
2022/02/26 01:27:26;;;;;;;23.10;3.90;;;4.40;99.90;;;;;;5099578;28;20436;-45
2022/02/26 01:29:53;;;;;;;29.40;4.50;;;4.40;99.90;;;;;;5103356;28;20213;-44
2022/02/26 01:32:19;;;;;;;22.93;4.37;;;4.40;99.90;;;;;;5099133;28;20204;-46
2022/02/26 01:34:47;;;;;;;27.33;4.10;;;4.40;99.90;;;;;;5103326;28;20685;-48
2022/02/26 01:37:14;;;;;;;20.47;4.23;;;4.40;99.90;;;;;;5093311;28;20208;-43
2022/02/26 01:39:40;;;;;;;32.87;4.07;;;4.30;99.90;;;;;;5096060;28;20653;-42
2022/02/26 01:42:09;;;;;;;18.70;3.33;;;4.30;99.90;;;;;;5084521;28;20197;-43
2022/02/26 01:44:37;;;;;;;26.70;4.67;;;4.30;99.90;;;;;;5097104;28;20193;-46
2022/02/26 01:47:05;;;;;;;27.87;3.80;;;4.30;99.90;;;;;;5094008;28;20202;-44
2022/02/26 01:49:32;;;;;;;23.83;4.00;;;4.20;99.90;;;;;;5101247;28;20193;-44
2022/02/26 01:51:59;;;;;;;21.77;4.80;;;4.20;99.90;;;;;;5102821;28;20205;-45
2022/02/26 01:54:25;;;;;;;22.07;4.63;;;4.20;99.90;;;;;;5099703;28;20491;-45
2022/02/26 01:56:52;;;;;;;21.97;4.57;;;4.20;99.90;;;;;;5085544;28;20650;-45
2022/02/26 01:59:21;;;;;;;22.63;3.80;;;4.20;99.90;;;;;;5092244;28;20194;-47
2022/02/26 02:01:47;;;;;;;15.83;3.60;;;4.10;99.90;;;;;;5096706;28;20216;-45
2022/02/26 02:04:15;;;;;;;19.70;3.80;;;4.10;99.90;;;;;;5093163;28;20204;-44
2022/02/26 02:06:42;;;;;;;18.87;4.53;;;4.10;99.90;;;;;;5096481;28;20197;-45
2022/02/26 02:09:12;;;;;;;24.47;4.70;;;4.10;99.90;;;;;;5098396;28;20287;-45
2022/02/26 02:11:39;;;;;;;22.83;5.17;;;4.10;99.90;;;;;;5091652;28;20228;-43
2022/02/26 02:14:07;;;;;;;20.83;4.20;;;4.10;99.90;;;;;;5105046;28;20221;-43
2022/02/26 02:16:36;;;;;;;18.67;3.80;;;4.10;99.90;;;;;;5104900;28;20216;-44
2022/02/26 02:19:07;;;;;;;22.57;4.50;;;4.00;99.90;;;;;;5105977;28;20204;-43
2022/02/26 02:21:33;;;;;;;25.60;4.80;;;4.00;99.90;;;;;;5105089;28;20217;-44
2022/02/26 02:24:02;;;;;;;27.03;4.17;;;4.00;99.90;;;;;;5106158;28;20201;-44
2022/02/26 02:26:30;;;;;;;31.13;5.40;;;4.00;99.90;;;;;;5088809;28;21680;-43
2022/02/26 02:28:58;;;;;;;25.83;4.30;;;3.90;99.90;;;;;;5106412;28;20205;-46
2022/02/26 02:31:25;;;;;;;24.93;4.00;;;3.90;99.90;;;;;;5102853;28;20217;-43
2022/02/26 02:33:52;;;;;;;23.07;5.27;;;3.90;99.90;;;;;;5106681;28;20213;-45
2022/02/26 02:36:19;;;;;;;26.07;4.63;;;3.90;99.90;;;;;;5102275;28;20181;-43
2022/02/26 02:38:47;;;;;;;25.43;4.17;;;3.90;99.90;;;;;;5106651;28;20231;-43
2022/02/26 02:41:15;;;;;;;26.90;4.43;;;3.90;99.90;;;;;;5103180;28;20221;-43
2022/02/26 02:43:43;;;;;;;25.67;4.37;;;3.80;99.90;;;;;;5091889;28;20204;-43
2022/02/26 02:46:10;;;;;;;26.43;4.00;;;3.80;99.90;;;;;;5098524;28;20660;-44
2022/02/26 02:48:38;;;;;;;22.17;4.40;;;3.80;99.90;;;;;;5105346;28;20985;-43
2022/02/26 02:51:06;;;;;;;23.07;3.03;;;3.80;99.90;;;;;;5104469;28;20228;-46
2022/02/26 02:53:34;;;;;;;22.80;3.57;;;3.80;99.90;;;;;;5104313;28;20403;-46
2022/02/26 02:56:01;;;;;;;20.63;5.63;;;3.80;99.90;;;;;;5105209;28;20662;-44
2022/02/26 02:58:30;;;;;;;22.77;4.13;;;3.70;99.90;;;;;;5088855;28;20204;-44
2022/02/26 03:00:57;;;;;;;24.33;3.93;;;3.70;99.90;;;;;;5106019;28;20221;-46
2022/02/26 03:03:25;;;;;;;16.83;3.83;;;3.70;99.90;;;;;;5102355;28;20273;-44
2022/02/26 03:05:52;;;;;;;19.00;3.87;;;3.60;99.90;;;;;;5105872;28;20189;-47
2022/02/26 03:08:23;;;;;;;22.13;3.90;;;3.60;99.90;;;;;;5101782;28;20251;-45
2022/02/26 03:10:51;;;;;;;26.07;4.63;;;3.60;99.90;;;;;;5106218;28;20217;-46
2022/02/26 03:13:20;;;;;;;19.60;3.67;;;3.60;99.90;;;;;;5087137;28;20201;-43
2022/02/26 03:15:49;;;;;;;15.50;3.63;;;3.60;99.90;;;;;;5105450;28;20277;-47
2022/02/26 03:18:16;;;;;;;26.20;4.60;;;3.60;99.90;;;;;;5101501;28;20205;-45
2022/02/26 03:20:43;;;;;;;17.17;3.47;;;3.50;99.90;;;;;;5105275;28;20218;-44
2022/02/26 03:23:10;;;;;;;26.63;3.97;;;3.50;99.90;;;;;;5103387;28;20206;-46
2022/02/26 03:25:37;;;;;;;24.50;3.90;;;3.40;99.90;;;;;;5104272;28;20220;-48
2022/02/26 03:28:05;;;;;;;15.67;4.07;;;3.40;99.90;;;;;;5098292;28;20209;-44
2022/02/26 03:30:31;;;;;;;21.57;4.20;;;3.40;99.90;;;;;;5095614;28;20439;-46
2022/02/26 03:33:00;;;;;;;26.90;4.03;;;3.30;99.90;;;;;;5105456;28;20209;-44
2022/02/26 03:35:27;;;;;;;24.47;4.53;;;3.30;99.90;;;;;;5102235;28;20213;-46
2022/02/26 03:37:54;;;;;;;18.33;2.97;;;3.30;99.90;;;;;;5105288;28;20255;-46
2022/02/26 03:40:22;;;;;;;27.60;4.53;;;3.30;99.90;;;;;;5101230;28;20953;-46
2022/02/26 03:42:49;;;;;;;16.50;3.57;;;3.30;99.90;;;;;;5105316;28;20757;-43
2022/02/26 03:45:16;;;;;;;18.93;3.60;;;3.30;99.90;;;;;;5083519;28;20568;-46
2022/02/26 03:47:43;;;;;;;14.93;3.10;;;3.20;99.90;;;;;;5105067;28;20225;-45
2022/02/26 03:50:13;;;;;;;25.73;5.13;;;3.20;99.90;;;;;;5102612;28;20221;-43
2022/02/26 03:52:40;;;;;;;20.97;5.03;;;3.20;99.90;;;;;;5104855;28;20197;-43
2022/02/26 03:55:08;;;;;;;17.97;3.63;;;3.20;99.90;;;;;;5102666;28;20223;-45
2022/02/26 03:57:36;;;;;;;20.27;3.57;;;3.20;99.90;;;;;;5102988;28;20415;-46
2022/02/26 04:00:05;;;;;;;24.90;3.60;;;3.20;99.90;;;;;;5089535;28;20233;-49
2022/02/26 04:02:38;;;;;;;26.30;4.13;;;3.20;99.90;;;;;;5104020;28;20203;-43
2022/02/26 04:05:06;;;;;;;17.67;3.23;;;3.10;99.90;;;;;;5103600;28;20564;-44
2022/02/26 04:07:35;;;;;;;23.83;3.80;;;3.10;99.90;;;;;;5103084;28;20424;-44
2022/02/26 04:10:02;;;;;;;20.27;3.30;;;3.10;99.90;;;;;;5104203;28;20299;-48
2022/02/26 04:12:29;;;;;;;25.07;4.13;;;3.10;99.90;;;;;;5101691;28;20219;-48
2022/02/26 04:14:56;;;;;;;28.07;3.87;;;3.10;99.90;;;;;;5104822;28;20705;-44
2022/02/26 04:17:22;;;;;;;24.97;4.00;;;3.10;99.90;;;;;;5085795;28;20209;-46
2022/02/26 04:19:50;;;;;;;26.47;3.67;;;3.00;99.90;;;;;;5104812;28;20220;-47
2022/02/26 04:22:18;;;;;;;27.93;3.53;;;3.00;99.90;;;;;;5100521;28;20229;-46
2022/02/26 04:24:45;;;;;;;15.10;3.53;;;3.00;99.90;;;;;;5104249;28;20193;-46
2022/02/26 04:27:12;;;;;;;18.67;3.67;;;3.00;99.90;;;;;;5094851;28;20201;-43
2022/02/26 04:29:39;;;;;;;22.50;3.83;;;2.90;99.90;;;;;;5101276;28;20566;-45
2022/02/26 04:32:07;;;;;;;21.20;3.20;;;2.90;99.90;;;;;;5088598;28;20220;-44
2022/02/26 04:34:34;;;;;;;23.23;3.30;;;2.90;99.90;;;;;;5102292;28;20814;-44
2022/02/26 04:37:00;;;;;;;20.07;3.83;;;2.90;99.90;;;;;;5103617;28;20208;-44
2022/02/26 04:39:28;;;;;;;21.93;4.67;;;2.80;99.90;;;;;;5100977;28;20448;-45
2022/02/26 04:41:56;;;;;;;16.97;3.83;;;2.90;99.90;;;;;;5104282;28;20197;-44
2022/02/26 04:44:23;;;;;;;16.60;3.47;;;2.80;99.90;;;;;;5100245;28;20922;-48
2022/02/26 04:46:50;;;;;;;18.03;3.00;;;2.80;99.90;;;;;;5089573;28;20201;-45
2022/02/26 04:49:17;;;;;;;25.00;4.73;;;2.80;99.90;;;;;;5100050;28;20196;-45
2022/02/26 04:51:44;;;;;;;21.83;3.90;;;2.80;99.90;;;;;;5104240;28;20874;-47
2022/02/26 04:54:12;;;;;;;15.60;3.23;;;2.80;99.90;;;;;;5101410;28;20205;-47
2022/02/26 04:56:39;;;;;;;18.80;3.47;;;2.80;99.90;;;;;;5102402;28;20197;-44
2022/02/26 04:59:07;;;;;;;21.47;3.40;;;2.80;99.90;;;;;;5101944;28;20213;-46
2022/02/26 05:01:34;;;;;;;19.63;3.17;;;2.70;99.90;;;;;;5087654;28;22409;-44
2022/02/26 05:04:01;;;;;;;24.17;3.23;;;2.60;99.90;;;;;;5102853;28;20197;-44
2022/02/26 05:06:28;;;;;;;12.00;2.60;;;2.50;99.90;;;;;;5100303;28;20194;-47
2022/02/26 05:08:55;;;;;;;16.13;3.63;;;2.40;99.90;;;;;;5103885;28;20224;-46
2022/02/26 05:11:22;;;;;;;14.60;2.97;;;2.40;99.90;;;;;;5099347;28;20213;-42
2022/02/26 05:13:49;;;;;;;15.83;2.97;;;2.30;99.90;;;;;;5103805;28;20280;-45
2022/02/26 05:16:17;;;;;;;12.67;2.87;;;2.20;99.90;;;;;;5099514;28;20689;-45
2022/02/26 05:18:44;;;;;;;14.00;3.40;;;2.10;99.90;;;;;;5089412;28;20205;-44
2022/02/26 05:21:11;;;;;;;24.93;3.60;;;2.10;99.90;;;;;;5097619;28;20236;-45
2022/02/26 05:23:41;;;;;;;17.00;3.57;;;2.10;99.90;;;;;;5102476;28;20559;-43
2022/02/26 05:26:11;;;;;;;18.67;3.13;;;2.00;99.90;;;;;;5100222;28;20211;-43
2022/02/26 05:28:37;;;;;;;23.67;3.20;;;2.00;99.90;;;;;;5102323;28;20491;-44
2022/02/26 05:31:05;;;;;;;21.67;3.60;;;1.90;99.90;;;;;;5102054;28;20592;-44
2022/02/26 05:33:33;;;;;;;14.90;2.97;;;1.80;99.90;;;;;;5086558;28;20344;-44
2022/02/26 05:36:00;;;;;;;13.53;2.83;;;1.80;99.90;;;;;;5102430;28;20570;-47
2022/02/26 05:38:28;;;;;;;19.93;3.70;;;1.70;99.90;;;;;;5099888;28;20338;-45
2022/02/26 05:40:55;;;;;;;13.70;3.30;;;1.60;99.90;;;;;;5103549;28;20278;-45
2022/02/26 05:43:22;;;;;;;25.10;4.00;;;1.60;99.90;;;;;;5092409;28;20197;-48
2022/02/26 05:45:49;;;;;;;24.87;3.43;;;1.60;99.90;;;;;;5103227;28;20195;-45
2022/02/26 05:48:15;;;;;;;17.50;3.90;;;1.60;99.90;;;;;;5086962;28;20205;-46
2022/02/26 05:50:44;;;;;;;20.47;3.50;;;1.50;99.90;;;;;;5102322;28;20303;-46
2022/02/26 05:53:11;;;;;;;21.73;3.50;;;1.50;99.90;;;;;;5097682;28;20197;-43
2022/02/26 05:55:38;;;;;;;20.40;3.53;;;1.40;99.90;;;;;;5101510;28;20227;-46
2022/02/26 05:58:04;;;;;;;13.80;2.47;;;1.40;99.90;;;;;;5100880;28;20205;-45
2022/02/26 06:00:31;;;;;;;14.73;3.07;;;1.40;99.90;;;;;;5100824;28;20429;-42
2022/02/26 06:02:58;;;;;;;15.10;3.13;;;1.30;99.90;;;;;;5102979;28;20211;-43
2022/02/26 06:05:25;;;;;;;15.63;2.80;;;1.20;99.90;;;;;;5084721;28;20431;-42
2022/02/26 06:07:53;;;;;;;19.77;3.23;;;1.20;99.90;;;;;;5102569;28;20197;-46
2022/02/26 06:10:20;;;;;;;20.30;3.33;;;1.20;99.90;;;;;;5098845;28;20216;-45
2022/02/26 06:12:47;;;;;;;16.17;4.27;;;1.10;99.90;;;;;;5103045;28;20238;-43
2022/02/26 06:15:14;;;;;;;22.87;3.30;;;1.10;99.90;;;;;;5099403;28;20217;-44
2022/02/26 06:17:41;;;;;;;18.70;4.00;;;1.10;99.90;;;;;;5102673;28;20193;-48
2022/02/26 06:20:09;;;;;;;21.00;3.80;;;1.20;99.90;;;;;;5092634;28;20220;-48
2022/02/26 06:22:36;;;;;;;15.60;3.23;;;1.10;99.90;;;;;;5096832;28;20263;-43
2022/02/26 06:25:05;;;;;;;20.67;3.67;;;1.10;99.90;;;;;;5100961;28;20193;-44
2022/02/26 06:27:36;;;;;;;8.67;2.70;;;1.10;99.90;;;;;;5100003;28;20425;-45
2022/02/26 06:30:03;;;;;;;21.57;2.90;;;1.00;99.90;;;;;;5101642;28;20232;-45
2022/02/26 06:32:31;;;;;;;17.77;3.00;;;1.10;99.90;;;;;;5100315;28;20224;-43
2022/02/26 06:34:57;;;;;;;12.00;2.70;;;1.00;99.90;;;;;;5102798;28;20197;-46
2022/02/26 06:37:24;;;;;;;17.03;2.90;;;1.00;99.90;;;;;;5083722;28;20208;-43
2022/02/26 06:39:51;;;;;;;16.50;3.30;;;1.00;99.90;;;;;;5102276;28;20228;-48
2022/02/26 06:42:19;;;;;;;18.90;3.50;;;1.10;99.90;;;;;;5098387;28;20201;-43
2022/02/26 06:44:46;;;;;;;18.93;4.20;;;1.10;99.90;;;;;;5102716;28;20197;-43
2022/02/26 06:47:13;;;;;;;23.47;3.53;;;1.20;99.90;;;;;;5099174;28;20200;-47
2022/02/26 06:49:43;;;;;;;19.20;3.70;;;1.30;99.90;;;;;;5102668;28;20258;-44
2022/02/26 06:52:10;;;;;;;17.63;3.27;;;1.40;99.90;;;;;;5091884;28;20204;-43
2022/02/26 06:54:37;;;;;;;27.50;3.87;;;1.50;99.90;;;;;;5099798;28;20509;-43
2022/02/26 06:57:05;;;;;;;21.40;3.23;;;1.50;99.90;;;;;;5103593;28;20619;-46
2022/02/26 06:59:34;;;;;;;22.63;3.00;;;1.60;99.90;;;;;;5103950;28;20407;-45
2022/02/26 07:02:00;;;;;;;22.30;3.27;;;1.70;99.90;;;;;;5106004;28;20196;-43
2022/02/26 07:04:29;;;;;;;32.63;4.23;;;1.70;99.90;;;;;;5102952;28;20197;-46
2022/02/26 07:06:55;;;;;;;24.70;3.73;;;1.80;99.90;;;;;;5106314;28;20696;-46
2022/02/26 07:09:22;;;;;;;22.47;4.57;;;1.90;99.90;;;;;;5087363;28;20196;-43
2022/02/26 07:11:50;;;;;;;24.27;3.97;;;1.90;99.90;;;;;;5105938;28;20204;-45
2022/02/26 07:14:17;;;;;;;22.50;3.83;;;2.00;99.90;;;;;;5102420;28;20201;-43
2022/02/26 07:16:45;;;;;;;25.07;3.60;;;2.00;99.90;;;;;;5105741;28;20221;-45
2022/02/26 07:19:12;;;;;;;25.07;3.97;;;2.10;99.90;;;;;;5103071;28;20198;-44
2022/02/26 07:21:40;;;;;;;29.17;4.43;;;2.10;99.90;;;;;;5105346;28;20213;-43
2022/02/26 07:24:07;;;;;;;18.43;3.70;;;2.20;99.90;;;;;;5097109;28;20254;-44
2022/02/26 07:26:33;;;;;;;20.50;3.70;;;2.30;99.90;;;;;;5096567;28;20188;-44
2022/02/26 07:29:00;;;;;;;23.53;3.87;;;2.30;99.90;;;;;;5105357;28;20213;-42
2022/02/26 07:31:27;;;;;;;15.43;4.30;;;2.40;99.90;;;;;;5102344;28;20209;-43
2022/02/26 07:33:56;;;;;;;17.00;4.30;;;2.50;99.90;;;;;;5105682;28;20201;-43
2022/02/26 07:36:23;;;;;;;17.67;3.63;;;2.60;99.90;;;;;;5101310;28;20213;-43
2022/02/26 07:38:51;;;;;;;18.57;4.10;;;2.60;99.90;;;;;;5105494;28;20209;-43
2022/02/26 07:41:18;;;;;;;22.30;3.50;;;2.70;99.90;;;;;;5086468;28;20217;-44
2022/02/26 07:43:44;;;;;;;17.13;3.47;;;2.80;99.90;;;;;;5105682;28;20546;-44
2022/02/26 07:46:12;;;;;;;18.73;4.40;;;2.80;99.90;;;;;;5102095;28;20209;-44
2022/02/26 07:48:39;;;;;;;22.20;4.30;;;2.90;99.90;;;;;;5104667;28;20560;-45
2022/02/26 07:51:07;;;;;;;23.37;3.30;;;3.00;99.90;;;;;;5103545;28;20217;-47
2022/02/26 07:53:34;;;;;;;21.80;3.70;;;3.00;99.90;;;;;;5103558;28;20189;-43
2022/02/26 07:56:01;;;;;;;21.50;3.20;;;3.10;99.90;;;;;;5089680;28;20300;-43
2022/02/26 07:58:28;;;;;;;22.80;4.10;;;3.20;99.90;;;;;;5102005;28;20199;-45
2022/02/26 08:00:55;;;;;;;15.03;3.63;;;3.20;99.90;;;;;;5105358;28;20694;-45
2022/02/26 08:03:22;;;;;;;17.07;3.43;;;3.30;99.90;;;;;;5100924;28;20189;-46
2022/02/26 08:05:49;;;;;;;18.37;4.20;;;3.40;99.90;;;;;;5104126;28;20614;-44
2022/02/26 08:08:17;;;;;;;19.03;3.70;;;3.50;99.90;;;;;;5101354;28;20200;-44
2022/02/26 08:10:44;;;;;;;22.77;4.50;;;3.50;99.90;;;;;;5087239;28;20214;-43
2022/02/26 08:13:13;;;;;;;19.17;3.60;;;3.60;99.90;;;;;;5101730;28;20515;-47
2022/02/26 08:15:40;;;;;;;21.53;3.67;;;3.70;99.90;;;;;;5104322;28;20289;-46
2022/02/26 08:18:08;;;;;;;12.63;3.27;;;3.80;99.90;;;;;;5102555;28;20201;-43
2022/02/26 08:20:35;;;;;;;15.77;3.47;;;3.90;99.90;;;;;;5103173;28;20222;-47
2022/02/26 08:23:02;;;;;;;13.73;3.10;;;4.00;99.90;;;;;;5104036;28;20212;-43
2022/02/26 08:25:30;;;;;;;17.07;3.90;;;4.00;99.90;;;;;;5087735;28;20232;-47
2022/02/26 08:27:58;;;;;;;23.50;4.13;;;4.00;99.90;;;;;;5104032;28;20194;-42
2022/02/26 08:30:24;;;;;;;15.43;3.40;;;4.10;99.90;;;;;;5100669;28;20213;-44
2022/02/26 08:32:52;;;;;;;23.33;3.87;;;4.20;99.90;;;;;;5104437;28;20201;-44
2022/02/26 08:35:20;;;;;;;17.27;3.47;;;4.20;99.90;;;;;;5100424;28;20901;-42
2022/02/26 08:37:47;;;;;;;15.07;3.43;;;4.30;99.90;;;;;;5104069;28;20217;-42
2022/02/26 08:40:16;;;;;;;21.20;3.47;;;4.30;99.90;;;;;;5101189;28;20217;-43
2022/02/26 08:42:45;;;;;;;20.07;4.33;;;4.30;99.90;;;;;;5090362;28;20197;-44
2022/02/26 08:45:13;;;;;;;17.10;3.77;;;4.40;99.90;;;;;;5100828;28;20568;-43
2022/02/26 08:47:39;;;;;;;12.47;3.77;;;4.50;99.90;;;;;;5103488;28;20208;-47
2022/02/26 08:50:09;;;;;;;18.40;3.80;;;4.60;99.90;;;;;;5102699;28;20604;-44
2022/02/26 08:52:36;;;;;;;23.23;4.17;;;4.60;99.90;;;;;;5103020;28;20469;-44
2022/02/26 08:55:03;;;;;;;16.00;2.77;;;4.70;99.90;;;;;;5102557;28;20221;-45
2022/02/26 08:57:30;;;;;;;15.77;3.10;;;4.80;99.90;;;;;;5086628;28;20444;-45
2022/02/26 08:59:58;;;;;;;21.13;4.17;;;4.90;99.90;;;;;;5103529;28;20216;-48
2022/02/26 09:02:26;;;;;;;23.93;3.60;;;5.10;99.90;;;;;;5100680;28;20850;-47
2022/02/26 09:04:53;;;;;;;15.67;3.20;;;5.20;99.90;;;;;;5104112;28;20193;-43
2022/02/26 09:07:20;;;;;;;11.27;3.13;;;5.30;99.90;;;;;;5099736;28;20196;-49
2022/02/26 09:09:46;;;;;;;20.37;4.07;;;5.30;99.90;;;;;;5103935;28;20698;-44
2022/02/26 09:12:13;;;;;;;13.73;3.17;;;5.30;99.90;;;;;;5090328;27;20198;-44
2022/02/26 09:14:40;;;;;;;17.70;2.77;;;5.30;99.90;;;;;;5101086;28;20201;-44
2022/02/26 09:17:08;;;;;;;15.27;3.17;;;5.40;99.90;;;;;;5100422;28;20300;-46
2022/02/26 09:19:36;;;;;;;18.10;2.93;;;5.40;99.90;;;;;;5102070;28;20873;-47
2022/02/26 09:22:04;;;;;;;11.93;2.83;;;5.40;99.90;;;;;;5102655;28;20205;-45
2022/02/26 09:24:32;;;;;;;13.27;3.13;;;5.50;99.90;;;;;;5101297;28;20185;-46
2022/02/26 09:26:59;;;;;;;19.70;3.07;;;5.60;99.90;;;;;;5101871;28;20279;-44
2022/02/26 09:29:26;;;;;;;13.60;2.70;;;5.60;99.90;;;;;;5085425;28;20195;-45
2022/02/26 09:31:53;;;;;;;13.23;2.53;;;5.70;99.90;;;;;;5103438;28;20201;-43
2022/02/26 09:34:23;;;;;;;21.50;3.37;;;5.70;99.90;;;;;;5098069;28;20777;-45
2022/02/26 09:36:51;;;;;;;10.50;2.80;;;5.80;99.90;;;;;;5103230;28;20236;-44
2022/02/26 09:39:18;;;;;;;12.70;2.57;;;5.90;99.90;;;;;;5099356;28;20719;-44
2022/02/26 09:41:47;;;;;;;14.03;2.60;;;6.00;99.90;;;;;;5103460;28;20709;-43
2022/02/26 09:44:15;;;;;;;13.53;2.57;;;6.10;99.90;;;;;;5088785;28;20197;-46
2022/02/26 09:46:43;;;;;;;10.63;2.70;;;6.20;99.90;;;;;;5102415;28;20193;-44
2022/02/26 09:49:10;;;;;;;12.20;2.23;;;6.20;99.90;;;;;;5100878;27;20205;-42
2022/02/26 09:51:41;;;;;;;12.43;2.30;;;6.30;99.90;;;;;;5101955;28;20225;-43
2022/02/26 09:54:08;;;;;;;12.53;2.27;;;6.40;99.90;;;;;;5101189;28;20773;-43
2022/02/26 09:56:35;;;;;;;7.63;2.43;;;6.40;99.90;;;;;;5100878;28;21003;-42
2022/02/26 09:59:02;;;;;;;10.83;1.60;;;6.50;99.90;;;;;;5100749;28;20201;-44
2022/02/26 10:01:29;;;;;;;8.10;1.47;;;6.50;99.90;;;;;;5085688;28;21051;-45
2022/02/26 10:04:06;;;;;;;7.03;1.87;;;6.60;99.90;;;;;;5103216;28;20276;-47
2022/02/26 10:06:34;;;;;;;10.53;2.30;;;6.60;99.90;;;;;;5094128;28;20895;-44
2022/02/26 10:09:08;;;;;;;10.30;2.23;;;6.70;99.90;;;;;;5102903;28;20205;-43
2022/02/26 10:11:37;;;;;;;10.83;2.00;;;6.80;99.90;;;;;;5095711;28;20295;-46
2022/02/26 10:14:07;;;;;;;10.73;2.00;;;6.80;99.90;;;;;;5102112;28;20199;-45
2022/02/26 10:16:48;;;;;;;12.70;1.90;;;6.90;99.90;;;;;;5086221;28;20875;-48
2022/02/26 10:19:26;;;;;;;8.83;2.20;;;7.00;99.90;;;;;;5096273;28;20197;-47
2022/02/26 10:21:56;;;;;;;4.97;1.20;;;7.00;99.90;;;;;;5102981;28;20193;-45
2022/02/26 10:24:25;;;;;;;6.47;1.50;;;7.00;99.90;;;;;;5098939;28;20216;-44
2022/02/26 10:26:54;;;;;;;7.63;1.80;;;7.10;99.90;;;;;;5101619;28;20193;-42
2022/02/26 10:29:23;;;;;;;4.67;1.90;;;7.10;99.90;;;;;;5101596;28;20842;-46
2022/02/26 10:31:51;;;;;;;11.73;2.13;;;7.20;99.90;;;;;;5092514;28;20205;-45
2022/02/26 10:34:30;;;;;;;9.13;1.97;;;7.20;99.90;;;;;;5102755;28;20189;-45
2022/02/26 10:37:03;;;;;;;6.07;1.47;;;7.30;99.90;;;;;;5100709;28;20226;-43
2022/02/26 10:39:34;;;;;;;5.47;1.20;;;7.30;99.90;;;;;;5102817;28;20820;-43
2022/02/26 10:42:02;;;;;;;13.37;2.00;;;7.30;99.90;;;;;;5105900;28;20204;-47
2022/02/26 10:44:29;;;;;;;11.63;1.50;;;7.40;99.90;;;;;;5103942;28;20324;-42
2022/02/26 10:47:06;;;;;;;6.03;1.00;;;7.40;99.90;;;;;;5092238;28;20662;-46
2022/02/26 10:49:34;;;;;;;5.10;1.20;;;7.50;99.90;;;;;;5104547;28;20351;-44
2022/02/26 10:52:08;;;;;;;6.77;2.17;;;7.50;99.90;;;;;;5106234;28;20582;-48
2022/02/26 10:54:38;;;;;;;6.13;1.40;;;7.60;99.90;;;;;;5104860;28;20196;-43
2022/02/26 10:57:07;;;;;;;4.80;1.33;;;7.60;99.90;;;;;;5103621;28;20205;-44
2022/02/26 10:59:36;;;;;;;5.60;1.60;;;7.70;99.90;;;;;;5104435;28;20192;-44
2022/02/26 11:02:06;;;;;;;5.37;1.50;;;7.80;99.90;;;;;;5101405;28;20646;-48
2022/02/26 11:04:33;;;;;;;6.37;1.20;;;7.80;99.90;;;;;;5096132;28;20922;-43
2022/02/26 11:07:00;;;;;;;5.03;1.20;;;7.80;99.90;;;;;;5105741;28;20217;-46
2022/02/26 11:09:28;;;;;;;4.87;1.20;;;7.90;99.90;;;;;;5102994;28;20193;-47
2022/02/26 11:11:58;;;;;;;4.07;1.17;;;7.80;99.90;;;;;;5106325;28;20208;-44
2022/02/26 11:14:27;;;;;;;8.00;1.23;;;7.90;99.90;;;;;;5102728;28;20190;-44
2022/02/26 11:16:56;;;;;;;3.33;1.10;;;7.90;99.90;;;;;;5105973;28;20685;-43
2022/02/26 11:19:26;;;;;;;4.53;1.10;;;8.00;99.90;;;;;;5087793;28;20193;-46
2022/02/26 11:21:54;;;;;;;5.57;1.03;;;8.10;99.90;;;;;;5105942;28;20288;-44
2022/02/26 11:24:21;;;;;;;2.30;1.07;;;8.10;99.90;;;;;;5102036;28;20945;-44
2022/02/26 11:26:49;;;;;;;3.47;1.30;;;8.10;99.90;;;;;;5105212;28;20186;-46
2022/02/26 11:29:20;;;;;;;6.83;0.80;;;8.20;99.90;;;;;;5095535;28;20681;-44
2022/02/26 11:31:52;;;;;;;2.23;0.80;;;8.30;99.90;;;;;;5099724;28;20811;-46
2022/02/26 11:34:23;;;;;;;2.97;1.00;;;8.30;99.90;;;;;;5087329;28;20201;-43
2022/02/26 11:36:53;;;;;;;6.40;1.07;;;8.30;99.90;;;;;;5105163;28;20213;-44
2022/02/26 11:39:29;;;;;;;3.97;1.03;;;8.30;99.90;;;;;;5101224;28;20912;-43
2022/02/26 11:42:36;;;;;;;3.63;1.00;;;8.40;99.90;;;;;;5105711;28;20283;-45
2022/02/26 11:45:09;;;;;;;5.57;1.23;;;8.50;99.90;;;;;;5099992;28;20198;-43
2022/02/26 11:47:43;;;;;;;4.20;0.70;;;8.50;99.90;;;;;;5104042;28;20246;-45
2022/02/26 11:50:14;;;;;;;6.93;2.27;;;8.50;99.90;;;;;;5087914;28;20221;-47
2022/02/26 11:52:47;;;;;;;4.67;0.80;;;8.60;99.90;;;;;;5104640;28;20197;-42
2022/02/26 11:55:33;;;;;;;3.33;0.90;;;8.60;99.90;;;;;;5101296;28;20197;-47
2022/02/26 11:58:03;;;;;;;2.87;0.80;;;8.60;99.90;;;;;;5102307;28;20228;-45
2022/02/26 12:00:36;;;;;;;9.30;1.17;;;8.60;99.90;;;;;;5101275;28;20847;-43
2022/02/26 12:03:49;;;;;;;6.20;1.23;;;8.60;99.90;;;;;;5104145;28;20204;-47
2022/02/26 12:06:36;;;;;;;4.07;0.80;;;8.60;99.90;;;;;;5085402;28;20282;-42
2022/02/26 12:09:08;;;;;;;3.50;0.77;;;8.60;99.90;;;;;;5103827;28;20292;-42
2022/02/26 12:11:39;;;;;;;3.90;1.17;;;8.60;99.90;;;;;;5103452;28;20235;-42
2022/02/26 12:14:08;;;;;;;5.53;0.80;;;8.60;99.90;;;;;;5103587;28;20185;-42
2022/02/26 12:16:37;;;;;;;3.73;0.90;;;8.70;99.90;;;;;;5103039;28;20189;-45
2022/02/26 12:19:06;;;;;;;4.53;0.80;;;8.80;99.90;;;;;;5103637;28;20200;-46
2022/02/26 12:21:36;;;;;;;3.30;0.67;;;8.90;99.90;;;;;;5088184;28;20205;-44
2022/02/26 12:24:11;;;;;;;4.93;1.27;;;8.90;99.90;;;;;;5103162;28;20209;-44
2022/02/26 12:26:46;;;;;;;6.27;1.20;;;8.90;99.90;;;;;;5098691;28;20619;-44
2022/02/26 12:29:31;;;;;;;3.67;0.87;;;8.90;99.90;;;;;;5101334;28;20208;-43
2022/02/26 12:32:02;;;;;;;3.30;0.70;;;9.00;99.90;;;;;;5104587;28;20197;-46
2022/02/26 12:34:31;;;;;;;2.37;0.80;;;9.00;99.90;;;;;;5101660;28;20193;-42
2022/02/26 12:37:16;;;;;;;1.90;0.63;;;9.00;99.90;;;;;;5089383;28;20255;-44
2022/02/26 12:39:47;;;;;;;2.27;0.87;;;9.00;99.10;;;;;;5100171;28;20197;-44
2022/02/26 12:42:19;;;;;;;2.47;0.80;;;9.00;99.90;;;;;;5095054;28;20241;-43
2022/02/26 12:44:46;;;;;;;2.27;0.70;;;9.00;99.90;;;;;;5104302;28;20854;-43
2022/02/26 12:47:15;;;;;;;1.07;0.60;;;9.00;99.90;;;;;;5100881;28;20197;-43
2022/02/26 12:49:43;;;;;;;1.60;0.70;;;9.10;99.90;;;;;;5104731;28;20197;-42
2022/02/26 12:52:11;;;;;;;3.13;1.10;;;9.20;99.90;;;;;;5087372;28;20703;-44
2022/02/26 12:54:39;;;;;;;1.33;0.70;;;9.20;99.90;;;;;;5102959;28;20204;-42